Time;durP1;ratioP1;P1;durP2;ratioP2;P2;SDS_P1;SDS_P2;PMS_P1;PMS_P2;Temp;Humidity;BMP_temperature;BMP_pressure;BME280_temperature;BME280_humidity;BME280_pressure;Samples;Min_cycle;Max_cycle;Signal;HPM_P1;HPM_P2
2022/04/12 00:00:06;;;;;;;7.67;4.23;;;;;;;-1.92;78.53;96050.81;1713343;83;21041;-74
2022/04/12 00:02:36;;;;;;;8.83;5.12;;;;;;;-1.88;79.29;96050.53;1748906;81;21031;-75
2022/04/12 00:05:03;;;;;;;7.70;4.77;;;;;;;-1.87;78.86;96056.16;1713500;84;20983;-75
2022/04/12 00:07:30;;;;;;;7.57;3.63;;;;;;;-1.85;78.77;96050.63;1749127;81;21070;-75
2022/04/12 00:09:56;;;;;;;5.00;3.47;;;;;;;-1.87;78.74;96051.86;1713335;83;21027;-75
2022/04/12 00:12:23;;;;;;;5.27;3.67;;;;;;;-1.87;78.68;96054.45;1749230;81;21004;-75
2022/04/12 00:14:51;;;;;;;6.20;3.60;;;;;;;-1.88;78.60;96050.53;1713410;84;20979;-75
2022/04/12 00:20:04;;;;;;;6.53;3.93;;;;;;;-1.87;78.46;96048.40;1713389;84;21043;-75
2022/04/12 00:22:30;;;;;;;7.93;4.40;;;;;;;-1.94;78.44;96048.61;1691919;84;21011;-74
2022/04/12 00:24:59;;;;;;;7.30;4.00;;;;;;;-2.00;78.38;96049.24;1713500;84;20983;-75
2022/04/12 00:27:27;;;;;;;7.17;3.87;;;;;;;-1.92;78.87;96047.35;1749425;81;21064;-74
2022/04/12 00:29:55;;;;;;;6.73;4.30;;;;;;;-1.96;79.05;96051.13;1713235;84;21031;-75
2022/04/12 00:32:21;;;;;;;9.60;5.30;;;;;;;-1.92;79.25;96051.23;1749183;81;21055;-74
2022/04/12 00:34:48;;;;;;;9.23;4.80;;;;;;;-1.92;78.98;96049.94;1713187;84;21498;-75
2022/04/12 00:37:14;;;;;;;12.10;5.03;;;;;;;-1.86;79.46;96042.00;1749310;81;20976;-75
2022/04/12 00:39:41;;;;;;;8.63;4.87;;;;;;;-1.81;79.25;96046.92;1713498;83;21055;-75
2022/04/12 00:42:08;;;;;;;8.67;4.93;;;;;;;-1.85;78.83;96049.34;1749329;82;21501;-74
2022/04/12 00:44:35;;;;;;;4.90;3.90;;;;;;;-1.90;78.74;96049.59;1713406;83;20971;-75
2022/04/12 00:47:02;;;;;;;8.60;3.47;;;;;;;-1.95;78.63;96050.70;1749272;81;20992;-75
2022/04/12 00:49:29;;;;;;;9.13;5.23;;;;;;;-2.07;78.77;96051.13;1713115;83;21563;-75
2022/04/12 00:51:56;;;;;;;8.93;5.00;;;;;;;-2.07;79.46;96062.76;1749403;82;21568;-75
2022/04/12 00:54:23;;;;;;;8.00;4.37;;;;;;;-2.01;79.66;96052.66;1713382;83;21022;-75
2022/04/12 00:56:52;;;;;;;4.93;3.23;;;;;;;-2.01;79.32;96056.55;1749330;82;21051;-75
2022/04/12 00:59:19;;;;;;;5.73;3.80;;;;;;;-1.95;79.15;96050.70;1713375;83;21058;-75
2022/04/12 01:01:46;;;;;;;5.30;3.47;;;;;;;-2.02;79.33;96059.06;1749124;82;21004;-75
2022/04/12 01:04:13;;;;;;;7.27;3.47;;;;;;;-2.10;78.96;96052.31;1713401;83;21054;-75
2022/04/12 01:06:39;;;;;;;5.77;3.90;;;;;;;-2.21;79.06;96057.52;1749215;82;21043;-75
2022/04/12 01:09:07;;;;;;;6.80;4.50;;;;;;;-2.32;79.75;96053.20;1713454;83;21074;-75
2022/04/12 01:11:35;;;;;;;8.00;5.07;;;;;;;-2.30;80.14;96048.98;1749032;82;21501;-75
2022/04/12 01:14:02;;;;;;;8.13;4.57;;;;;;;-2.20;80.17;96046.33;1713317;84;21102;-75
2022/04/12 01:16:28;;;;;;;10.70;5.03;;;;;;;-2.18;80.18;96053.32;1749162;81;21030;-75
2022/04/12 01:18:55;;;;;;;6.03;4.07;;;;;;;-2.19;80.08;96058.03;1713301;84;20999;-75
2022/04/12 01:21:22;;;;;;;5.87;3.83;;;;;;;-2.18;80.23;96053.32;1749317;82;21425;-75
2022/04/12 01:24:04;;;;;;;6.77;3.43;;;;;;;-2.11;80.02;96057.03;1713351;84;21050;-75
2022/04/12 01:26:32;;;;;;;10.53;4.50;;;;;;;-2.13;79.77;96053.50;1749187;82;21031;-75
2022/04/12 01:28:59;;;;;;;7.10;4.03;;;;;;;-2.21;79.51;96054.92;1713311;84;21043;-75
2022/04/12 01:31:27;;;;;;;7.13;3.57;;;;;;;-2.28;79.20;96046.47;1749184;81;21458;-75
2022/04/12 01:33:53;;;;;;;6.10;3.20;;;;;;;-2.29;79.22;96049.47;1713300;83;21098;-76
2022/04/12 01:36:20;;;;;;;6.57;3.70;;;;;;;-2.32;79.61;96044.58;1749296;82;20960;-75
2022/04/12 01:38:46;;;;;;;4.60;2.87;;;;;;;-2.38;79.51;96047.81;1713390;83;21541;-75
2022/04/12 01:41:13;;;;;;;4.87;2.67;;;;;;;-2.42;79.65;96053.67;1749224;81;20992;-75
2022/04/12 01:43:40;;;;;;;4.40;2.10;;;;;;;-2.40;79.53;96046.87;1713413;84;20995;-75
2022/04/12 01:46:06;;;;;;;4.50;2.80;;;;;;;-2.39;79.53;96047.36;1749270;81;20992;-75
2022/04/12 01:48:33;;;;;;;4.13;3.20;;;;;;;-2.36;79.92;96045.30;1713166;84;21019;-75
2022/04/12 01:50:59;;;;;;;6.97;4.10;;;;;;;-2.31;80.12;96042.48;1749321;81;21003;-75
2022/04/12 01:53:26;;;;;;;5.67;3.50;;;;;;;-2.26;80.18;96041.82;1713102;83;21043;-75
2022/04/12 01:55:52;;;;;;;5.23;3.10;;;;;;;-2.18;80.09;96037.81;1749319;81;20995;-75
2022/04/12 01:58:19;;;;;;;6.20;3.07;;;;;;;-2.07;80.32;96043.37;1713387;84;21067;-75
2022/04/12 02:00:47;;;;;;;4.03;2.70;;;;;;;-2.14;79.20;96037.53;1749245;81;21083;-75
2022/04/12 02:03:14;;;;;;;7.27;3.00;;;;;;;-2.18;79.20;96040.81;1691876;84;20991;-74
2022/04/12 02:05:41;;;;;;;5.63;2.83;;;;;;;-2.25;78.99;96038.82;1749030;82;21095;-75
2022/04/12 02:08:08;;;;;;;24.63;14.33;;;;;;;-2.29;79.21;96047.30;1713358;83;21035;-75
2022/04/12 02:10:35;;;;;;;27.57;12.53;;;;;;;-2.43;79.11;96050.22;1749118;82;21066;-75
2022/04/12 02:13:02;;;;;;;33.63;17.83;;;;;;;-2.55;79.17;96051.03;1749257;81;21043;-75
2022/04/12 02:15:28;;;;;;;22.47;10.40;;;;;;;-2.48;79.87;96051.75;1748999;82;21063;-75
2022/04/12 02:17:55;;;;;;;11.03;5.43;;;;;;;-2.39;80.00;96048.65;1749184;82;21511;-75
2022/04/12 02:20:22;;;;;;;8.93;4.80;;;;;;;-2.28;80.06;96052.92;1713485;84;21000;-75
2022/04/12 02:22:48;;;;;;;5.67;3.27;;;;;;;-2.24;79.47;96053.52;1749183;81;21488;-75
2022/04/12 02:25:15;;;;;;;4.57;2.13;;;;;;;-2.26;79.02;96047.41;1713310;83;20999;-75
2022/04/12 02:27:41;;;;;;;10.20;5.30;;;;;;;-2.24;79.04;96045.77;1749137;81;21465;-75
2022/04/12 02:30:10;;;;;;;8.40;4.07;;;;;;;-2.31;78.62;96049.81;1713289;83;21051;-75
2022/04/12 02:32:36;;;;;;;7.07;4.53;;;;;;;-2.43;79.02;96045.47;1750103;81;21023;-75
2022/04/12 02:35:04;;;;;;;6.73;3.37;;;;;;;-2.53;79.11;96048.52;1726273;83;21531;-75
2022/04/12 02:37:30;;;;;;;9.97;6.47;;;;;;;-2.59;80.27;96049.59;1726468;83;20971;-74
2022/04/12 02:39:57;;;;;;;5.60;3.20;;;;;;;-2.56;80.22;96044.12;1726557;83;21014;-75
2022/04/12 02:42:24;;;;;;;7.07;3.63;;;;;;;-2.53;80.05;96035.19;1726291;83;21136;-74
2022/04/12 02:44:50;;;;;;;7.93;5.00;;;;;;;-2.44;80.02;96037.26;1726372;83;21002;-75
2022/04/12 02:47:17;;;;;;;9.93;5.63;;;;;;;-2.41;79.75;96036.95;1726349;83;21461;-74
2022/04/12 02:49:43;;;;;;;9.37;5.37;;;;;;;-2.39;79.38;96027.98;1726372;83;20975;-75
2022/04/12 02:52:10;;;;;;;9.10;5.33;;;;;;;-2.45;79.03;96030.31;1726407;83;21050;-75
2022/04/12 02:54:36;;;;;;;11.03;5.07;;;;;;;-2.45;79.19;96030.31;1726370;83;20971;-75
2022/04/12 02:57:03;;;;;;;3.30;2.10;;;;;;;-2.55;78.75;96026.48;1726243;83;21010;-75
2022/04/12 02:59:29;;;;;;;4.70;3.00;;;;;;;-2.53;79.29;96029.14;1726524;83;21018;-75
2022/04/12 03:01:56;;;;;;;6.47;4.33;;;;;;;-2.46;79.63;96027.27;1726348;83;20971;-74
2022/04/12 03:04:23;;;;;;;2.80;2.00;;;;;;;-2.45;79.41;96027.72;1726286;83;21085;-75
2022/04/12 03:06:49;;;;;;;4.07;2.33;;;;;;;-2.43;79.66;96023.50;1726488;83;21050;-75
2022/04/12 03:09:18;;;;;;;2.87;1.90;;;;;;;-2.41;79.48;96027.91;1726413;83;21026;-75
2022/04/12 03:11:45;;;;;;;2.20;1.83;;;;;;;-2.31;79.79;96030.84;1726601;83;20991;-75
2022/04/12 03:14:11;;;;;;;6.07;4.37;;;;;;;-2.24;79.50;96028.55;1726342;83;21059;-75
2022/04/12 03:16:38;;;;;;;13.50;8.47;;;;;;;-2.39;78.58;96027.98;1725887;83;21010;-74
2022/04/12 03:19:04;;;;;;;29.43;16.77;;;;;;;-2.62;78.27;96029.27;1726235;83;21033;-74
2022/04/12 03:21:31;;;;;;;35.50;18.93;;;;;;;-2.67;79.29;96028.20;1708239;84;21498;-74
2022/04/12 03:23:57;;;;;;;37.07;20.17;;;;;;;-2.75;79.78;96034.75;1708141;84;21044;-74
2022/04/12 03:26:24;;;;;;;12.40;8.17;;;;;;;-2.83;79.72;96033.16;1708379;84;21051;-75
2022/04/12 03:28:50;;;;;;;4.43;2.70;;;;;;;-2.81;80.25;96033.23;1708291;84;21032;-75
2022/04/12 03:31:16;;;;;;;3.00;2.20;;;;;;;-2.65;80.41;96026.95;1708110;84;21028;-74
2022/04/12 03:33:43;;;;;;;3.17;2.10;;;;;;;-2.56;80.34;96020.86;1704675;84;21483;-74
2022/04/12 03:36:10;;;;;;;2.93;2.30;;;;;;;-2.55;79.68;96018.73;1699851;84;21104;-75
2022/04/12 03:38:40;;;;;;;4.10;2.10;;;;;;;-2.51;79.66;96018.05;1699812;84;21526;-75
2022/04/12 03:41:06;;;;;;;9.97;6.23;;;;;;;-2.55;79.26;96018.73;1699862;84;21522;-74
2022/04/12 03:43:33;;;;;;;20.67;12.37;;;;;;;-2.50;79.82;96030.55;1699898;84;21481;-74
2022/04/12 03:46:00;;;;;;;57.90;22.50;;;;;;;-2.53;79.25;96028.72;1699904;84;21024;-71
2022/04/12 03:48:26;;;;;;;79.70;31.50;;;;;;;-2.52;79.23;96033.09;1699933;84;21000;-69
2022/04/12 03:50:53;;;;;;;69.43;27.40;;;;;;;-2.51;78.93;96029.67;1699872;84;21135;-73
2022/04/12 03:53:19;;;;;;;69.50;30.63;;;;;;;-2.64;78.99;96035.20;1712918;84;21522;-75
2022/04/12 03:55:46;;;;;;;45.97;21.07;;;;;;;-2.74;79.05;96040.83;1713293;83;20992;-76
2022/04/12 03:58:19;;;;;;;61.70;28.80;;;;;;;-2.89;79.03;96043.67;1712942;84;21012;-76
2022/04/12 04:00:41;;;;;;;12.20;6.37;;;;;;;-2.93;78.88;96042.66;1711924;84;21484;-76
2022/04/12 04:03:08;;;;;;;4.27;2.40;;;;;;;-2.89;79.29;96044.97;1712654;84;21087;-77
2022/04/12 04:05:34;;;;;;;15.20;6.90;;;;;;;-2.83;79.79;96042.20;1713072;84;21033;-78
2022/04/12 04:08:01;;;;;;;42.27;19.07;;;;;;;-2.77;80.41;96043.26;1712850;84;21059;-78
2022/04/12 04:10:27;;;;;;;30.30;16.50;;;;;;;-2.89;81.06;96045.84;1712989;84;21055;-78
2022/04/12 04:12:54;;;;;;;33.47;18.47;;;;;;;-2.86;80.61;96049.83;1712856;84;21143;-77
2022/04/12 04:15:21;;;;;;;49.93;27.60;;;;;;;-2.81;80.26;96047.86;1713292;84;20988;-77
2022/04/12 04:17:48;;;;;;;25.90;14.40;;;;;;;-2.85;80.05;96053.28;1712767;83;21036;-78
2022/04/12 04:20:17;;;;;;;41.10;22.80;;;;;;;-2.77;80.89;96057.47;1713091;84;21020;-82
2022/04/12 04:22:44;;;;;;;43.03;21.97;;;;;;;-2.78;80.63;96055.30;1713119;83;21000;-77
2022/04/12 04:25:14;;;;;;;31.93;18.67;;;;;;;-2.73;81.04;96059.36;1713225;84;20979;-77
2022/04/12 04:27:43;;;;;;;12.53;7.73;;;;;;;-2.55;81.42;96055.33;1712970;83;21552;-77
2022/04/12 04:30:11;;;;;;;25.60;15.03;;;;;;;-2.43;81.21;96059.68;1713021;83;21486;-77
2022/04/12 04:32:40;;;;;;;46.33;26.17;;;;;;;-2.41;80.51;96071.84;1713022;84;21532;-77
2022/04/12 04:35:08;;;;;;;2.77;2.10;;;;;;;-2.36;80.29;96072.44;1717770;83;21082;-77
2022/04/12 04:37:46;;;;;;;6.67;4.40;;;;;;;-2.35;80.19;96066.44;1719027;83;21092;-77
2022/04/12 04:40:19;;;;;;;16.87;9.47;;;;;;;-2.36;79.90;96071.14;1718983;83;21034;-77
2022/04/12 04:42:49;;;;;;;38.38;20.08;;;;;;;-2.41;79.88;96078.71;1718699;83;21028;-77
2022/04/12 04:45:16;;;;;;;104.73;51.27;;;;;;;-2.43;79.83;96074.77;1718794;83;21035;-77
2022/04/12 04:47:53;;;;;;;113.53;56.53;;;;;;;-2.48;80.13;96086.62;1718816;83;20979;-76
2022/04/12 04:50:21;;;;;;;170.67;73.93;;;;;;;-2.49;81.00;96081.00;1718145;83;21027;-77
2022/04/12 04:52:49;;;;;;;136.93;72.63;;;;;;;-2.32;81.21;96079.46;1718848;83;21155;-77
2022/04/12 04:55:17;;;;;;;113.43;63.13;;;;;;;-2.21;81.15;96088.53;1718742;83;20975;-77
2022/04/12 04:57:45;;;;;;;135.90;73.83;;;;;;;-2.12;81.27;96077.22;1718628;83;21006;-77
2022/04/12 05:00:16;;;;;;;137.60;72.27;;;;;;;-1.99;81.52;96080.76;1718770;83;21051;-82
2022/04/12 05:02:48;;;;;;;119.47;64.63;;;;;;;-1.77;81.39;96080.23;1717885;83;21114;-79
2022/04/12 05:05:16;;;;;;;98.30;53.52;;;;;;;-1.66;81.27;96084.50;1718623;83;21054;-73
2022/04/12 05:07:46;;;;;;;70.63;40.60;;;;;;;-1.46;81.22;96086.51;1718417;83;21126;-79
2022/04/12 05:10:17;;;;;;;64.47;36.17;;;;;;;-1.36;80.73;96089.50;1713407;83;21057;-78
2022/04/12 05:12:44;;;;;;;58.17;34.47;;;;;;;-1.24;80.43;96090.31;1705651;83;20999;-75
2022/04/12 05:15:11;;;;;;;45.37;27.13;;;;;;;-1.11;80.22;96083.84;1716157;83;21042;-77
2022/04/12 05:17:38;;;;;;;28.93;17.00;;;;;;;-1.01;79.92;96088.50;1716184;83;21497;-75
2022/04/12 05:20:10;;;;;;;28.43;16.80;;;;;;;-0.81;80.25;96083.11;1717553;83;20968;-76
2022/04/12 05:22:37;;;;;;;25.83;14.97;;;;;;;-0.68;79.74;96084.88;1713343;83;20968;-76
2022/04/12 05:25:04;;;;;;;26.10;15.63;;;;;;;-0.57;79.74;96086.93;1708504;82;21034;-75
2022/04/12 05:27:32;;;;;;;27.33;14.73;;;;;;;-0.51;79.35;96084.52;1697847;82;21134;-80
2022/04/12 05:30:00;;;;;;;22.37;11.53;;;;;;;-0.48;79.16;96088.11;1699349;82;21568;-78
2022/04/12 05:32:27;;;;;;;22.33;12.30;;;;;;;-0.27;79.83;96093.50;1693510;83;21607;-75
2022/04/12 05:34:53;;;;;;;19.80;11.83;;;;;;;-0.06;79.27;96094.13;1717079;83;21039;-74
2022/04/12 05:37:20;;;;;;;15.93;10.43;;;;;;;0.14;78.94;96089.97;1717588;83;21087;-75
2022/04/12 05:39:47;;;;;;;16.90;10.73;;;;;;;0.32;78.32;96090.91;1717918;83;21458;-75
2022/04/12 05:42:14;;;;;;;19.77;14.30;;;;;;;0.47;77.88;96091.34;1717812;83;21158;-77
2022/04/12 05:44:41;;;;;;;17.63;10.13;;;;;;;0.70;77.39;96086.78;1718152;83;21462;-71
2022/04/12 05:47:15;;;;;;;15.43;9.53;;;;;;;0.90;76.79;96078.23;1717364;83;21146;-77
2022/04/12 05:49:41;;;;;;;13.17;8.20;;;;;;;1.13;77.18;96073.63;1717527;83;21031;-71
2022/04/12 05:52:08;;;;;;;10.90;7.10;;;;;;;1.32;76.96;96067.17;1718153;83;21031;-70
2022/04/12 05:54:35;;;;;;;13.13;7.90;;;;;;;1.42;75.99;96069.59;1718367;83;20995;-67
2022/04/12 05:57:02;;;;;;;11.67;7.53;;;;;;;1.46;76.04;96073.60;1718365;83;21090;-70
2022/04/12 05:59:29;;;;;;;11.63;7.57;;;;;;;1.54;75.75;96070.28;1718386;83;21110;-69
2022/04/12 06:01:55;;;;;;;12.40;7.83;;;;;;;1.53;75.07;96074.61;1718391;83;21027;-70
2022/04/12 06:04:22;;;;;;;11.23;7.40;;;;;;;1.53;75.31;96074.61;1717392;83;21070;-79
2022/04/12 06:06:49;;;;;;;14.43;8.17;;;;;;;1.59;75.49;96076.07;1718351;83;21587;-70
2022/04/12 06:09:15;;;;;;;15.33;9.27;;;;;;;1.66;75.88;96071.88;1715127;83;21055;-69
2022/04/12 06:11:42;;;;;;;14.73;9.27;;;;;;;1.66;76.18;96070.17;1717883;83;21557;-69
2022/04/12 06:14:08;;;;;;;16.40;10.27;;;;;;;1.66;76.00;96080.97;1714609;83;21033;-71
2022/04/12 06:16:35;;;;;;;17.20;10.07;;;;;;;1.67;76.23;96075.82;1756195;82;21050;-72
2022/04/12 06:19:01;;;;;;;13.53;8.73;;;;;;;1.80;76.26;96076.11;1756174;82;21517;-69
2022/04/12 06:21:28;;;;;;;16.70;10.47;;;;;;;1.93;76.61;96085.94;1756518;82;21011;-68
2022/04/12 06:23:55;;;;;;;15.63;9.70;;;;;;;2.05;76.44;96081.44;1756176;82;21106;-69
2022/04/12 06:26:21;;;;;;;15.43;8.53;;;;;;;2.25;75.33;96076.23;1755753;82;20999;-69
2022/04/12 06:28:48;;;;;;;10.90;7.77;;;;;;;2.46;75.16;96074.49;1756276;82;20980;-70
2022/04/12 06:31:14;;;;;;;10.20;6.97;;;;;;;2.62;74.39;96078.30;1695584;83;21056;-69
2022/04/12 06:33:40;;;;;;;7.67;5.93;;;;;;;2.78;73.77;96071.23;1690468;85;21555;-75
2022/04/12 06:36:07;;;;;;;12.20;6.10;;;;;;;2.82;72.24;96074.75;1718355;83;21007;-68
2022/04/12 06:38:33;;;;;;;6.60;4.33;;;;;;;2.92;72.16;96064.95;1720294;82;21084;-72
2022/04/12 06:41:00;;;;;;;6.23;5.00;;;;;;;3.07;70.66;96074.78;1687138;83;21066;-69
2022/04/12 06:43:26;;;;;;;8.97;6.00;;;;;;;3.21;72.21;96081.13;1718847;83;22154;-73
2022/04/12 06:45:53;;;;;;;8.90;5.43;;;;;;;3.37;70.98;96071.83;1683692;85;21038;-79
2022/04/12 06:48:19;;;;;;;11.57;7.73;;;;;;;3.52;70.61;96071.21;1718480;83;21513;-72
2022/04/12 06:50:45;;;;;;;13.17;7.87;;;;;;;3.74;69.95;96066.34;1727772;82;20996;-80
2022/04/12 06:53:12;;;;;;;11.27;8.40;;;;;;;3.92;69.75;96069.66;1746464;80;21842;-71
2022/04/12 06:55:38;;;;;;;10.10;6.17;;;;;;;4.17;70.24;96078.28;1731076;80;21047;-73
2022/04/12 06:58:05;;;;;;;12.87;6.07;;;;;;;4.42;68.46;96074.70;1684430;85;21568;-80
2022/04/12 07:00:32;;;;;;;8.70;5.87;;;;;;;4.69;69.36;96075.05;1726099;80;21461;-67
2022/04/12 07:02:58;;;;;;;12.13;5.57;;;;;;;4.93;68.10;96068.33;1738322;80;21074;-67
2022/04/12 07:05:25;;;;;;;10.03;5.60;;;;;;;5.25;68.31;96065.18;1710223;84;21320;-67
2022/04/12 07:07:53;;;;;;;7.13;4.40;;;;;;;5.43;65.23;96071.45;1739626;82;21454;-67
2022/04/12 07:10:20;;;;;;;6.23;4.10;;;;;;;5.60;64.95;96068.11;1738516;81;21055;-66
2022/04/12 07:12:46;;;;;;;5.80;4.30;;;;;;;5.77;62.88;96069.13;1709020;84;21046;-67
2022/04/12 07:15:14;;;;;;;4.37;3.10;;;;;;;5.97;61.15;96064.06;1663040;85;21021;-68
2022/04/12 07:17:41;;;;;;;6.40;4.60;;;;;;;5.92;57.03;96064.84;1718753;83;21025;-66
2022/04/12 07:20:09;;;;;;;4.57;3.17;;;;;;;6.03;57.81;96061.91;1684827;85;21015;-66
2022/04/12 07:22:36;;;;;;;5.10;4.17;;;;;;;6.11;56.44;96062.83;1663714;85;21078;-68
2022/04/12 07:25:04;;;;;;;5.27;4.30;;;;;;;6.18;56.05;96072.92;1718940;83;21058;-67
2022/04/12 07:27:36;;;;;;;5.30;3.40;;;;;;;6.21;54.22;96067.70;1684624;85;21019;-73
2022/04/12 07:30:08;;;;;;;7.03;4.97;;;;;;;6.17;55.74;96070.71;1719059;83;20996;-74
2022/04/12 07:32:35;;;;;;;6.50;3.87;;;;;;;6.27;56.50;96066.41;1684171;85;21019;-69
2022/04/12 07:35:02;;;;;;;5.93;3.53;;;;;;;6.44;56.64;96076.99;1718215;83;21098;-75
2022/04/12 07:37:29;;;;;;;8.40;5.73;;;;;;;6.52;53.75;96068.72;1683740;85;21049;-79
2022/04/12 07:39:56;;;;;;;7.13;3.50;;;;;;;6.56;53.98;96069.63;1718160;83;21512;-77
2022/04/12 07:42:23;;;;;;;4.63;3.53;;;;;;;6.57;52.44;96072.68;1683459;85;20991;-68
2022/04/12 07:44:51;;;;;;;6.53;3.30;;;;;;;6.60;54.57;96071.38;1718772;83;20987;-80
2022/04/12 07:47:18;;;;;;;6.87;3.13;;;;;;;6.63;53.88;96056.99;1683859;85;21513;-68
2022/04/12 07:49:44;;;;;;;5.20;3.13;;;;;;;6.72;54.05;96059.63;1717450;83;21090;-71
2022/04/12 07:52:11;;;;;;;3.67;3.20;;;;;;;6.68;53.89;96059.20;1683781;85;21022;-70
2022/04/12 07:54:37;;;;;;;3.83;2.70;;;;;;;6.72;54.55;96059.63;1718754;83;21059;-68
2022/04/12 07:57:05;;;;;;;4.10;2.60;;;;;;;6.85;53.19;96056.17;1683827;85;21017;-68
2022/04/12 07:59:32;;;;;;;6.17;3.20;;;;;;;7.06;52.81;96055.82;1728950;82;21037;-69
2022/04/12 08:01:58;;;;;;;4.70;2.80;;;;;;;7.29;53.00;96055.42;1743435;82;21310;-68
2022/04/12 08:04:25;;;;;;;3.90;2.30;;;;;;;7.51;51.13;96060.68;1742166;82;21058;-71
2022/04/12 08:06:52;;;;;;;4.27;2.50;;;;;;;7.62;49.35;96058.95;1709465;84;20995;-67
2022/04/12 08:09:18;;;;;;;4.57;2.70;;;;;;;7.83;50.32;96055.88;1738843;82;21141;-68
2022/04/12 08:11:45;;;;;;;3.37;2.40;;;;;;;8.01;49.10;96055.44;1745007;81;21058;-68
2022/04/12 08:14:11;;;;;;;3.57;2.20;;;;;;;8.26;49.11;96053.19;1710917;84;21133;-69
2022/04/12 08:16:38;;;;;;;5.27;2.40;;;;;;;8.38;47.63;96061.05;1748073;81;21080;-69
2022/04/12 08:19:05;;;;;;;3.93;2.87;;;;;;;8.40;46.49;96062.83;1712368;84;21058;-70
2022/04/12 08:21:38;;;;;;;3.33;2.67;;;;;;;8.34;46.62;96068.50;1748833;81;20984;-69
2022/04/12 08:24:07;;;;;;;3.60;2.10;;;;;;;8.48;46.90;96068.07;1748603;81;21016;-70
2022/04/12 08:26:34;;;;;;;4.40;2.50;;;;;;;8.52;48.88;96055.36;1713326;84;20982;-68
2022/04/12 08:29:14;;;;;;;5.03;3.07;;;;;;;8.75;44.85;96057.03;1754743;81;21015;-69
2022/04/12 08:31:41;;;;;;;6.13;2.93;;;;;;;8.63;45.48;96063.20;1773428;81;21122;-69
2022/04/12 08:34:07;;;;;;;5.37;2.47;;;;;;;8.64;43.78;96063.21;1773553;81;21065;-68
2022/04/12 08:36:34;;;;;;;3.67;2.40;;;;;;;8.42;44.97;96061.08;1782217;80;21033;-70
2022/04/12 08:39:00;;;;;;;2.93;2.43;;;;;;;8.34;44.00;96060.61;1777239;80;21066;-71
2022/04/12 08:41:30;;;;;;;5.03;2.40;;;;;;;8.41;45.63;96063.25;1726147;83;21018;-72
2022/04/12 08:43:59;;;;;;;3.53;2.30;;;;;;;8.44;42.41;96063.69;1726565;83;20981;-69
2022/04/12 08:46:28;;;;;;;3.20;2.43;;;;;;;8.37;44.21;96069.39;1726451;83;21042;-66
2022/04/12 08:48:56;;;;;;;3.47;2.50;;;;;;;8.23;43.11;96070.72;1725203;83;21081;-69
2022/04/12 08:51:27;;;;;;;4.40;2.30;;;;;;;8.21;44.73;96073.81;1725671;83;21563;-69
2022/04/12 08:53:53;;;;;;;4.67;2.70;;;;;;;8.09;44.98;96064.62;1724800;83;21041;-70
2022/04/12 08:56:20;;;;;;;5.20;2.80;;;;;;;8.21;45.87;96064.61;1725238;83;22238;-66
2022/04/12 08:58:46;;;;;;;3.80;2.80;;;;;;;8.62;46.65;96061.47;1725805;83;21038;-68
2022/04/12 09:01:13;;;;;;;3.97;2.37;;;;;;;9.10;44.67;96047.20;1725725;83;21499;-66
2022/04/12 09:03:39;;;;;;;3.20;2.37;;;;;;;9.55;44.83;96044.29;1725746;83;21049;-69
2022/04/12 09:06:06;;;;;;;5.43;2.60;;;;;;;9.67;43.12;96045.94;1699764;83;21481;-67
2022/04/12 09:08:33;;;;;;;3.27;2.33;;;;;;;9.35;40.38;96044.42;1726293;83;21014;-69
2022/04/12 09:11:04;;;;;;;5.58;2.30;;;;;;;9.32;42.21;96047.05;1725859;83;21157;-79
2022/04/12 09:13:32;;;;;;;5.33;2.87;;;;;;;9.46;41.48;96046.98;1700387;83;21089;-69
2022/04/12 09:16:00;;;;;;;5.70;2.87;;;;;;;9.38;41.41;96043.09;1725098;83;21650;-69
2022/04/12 09:18:39;;;;;;;3.90;2.63;;;;;;;9.18;40.92;96047.61;1724981;83;21026;-69
2022/04/12 09:21:21;;;;;;;4.53;2.80;;;;;;;8.97;39.73;96046.84;1724770;83;21085;-69
2022/04/12 09:23:52;;;;;;;3.47;2.57;;;;;;;8.85;41.12;96042.50;1724917;83;21065;-69
2022/04/12 09:26:29;;;;;;;2.93;2.40;;;;;;;8.95;42.73;96038.52;1724350;83;21077;-69
2022/04/12 09:29:00;;;;;;;4.20;2.50;;;;;;;9.27;43.43;96040.53;1725013;83;21108;-70
2022/04/12 09:31:27;;;;;;;3.20;2.70;;;;;;;9.56;42.24;96042.08;1724650;83;21638;-69
2022/04/12 09:33:55;;;;;;;6.07;3.00;;;;;;;9.69;42.99;96046.36;1724859;83;21089;-69
2022/04/12 09:36:22;;;;;;;3.63;2.60;;;;;;;9.71;39.78;96041.09;1715407;83;21122;-69
2022/04/12 09:38:59;;;;;;;4.40;2.20;;;;;;;9.64;39.08;96040.25;1748548;82;21014;-70
2022/04/12 09:41:29;;;;;;;4.40;2.65;;;;;;;9.88;41.24;96037.00;1748601;82;21482;-69
2022/04/12 09:44:08;;;;;;;6.75;2.92;;;;;;;10.21;41.29;96033.62;1712673;83;21513;-69
2022/04/12 09:46:37;;;;;;;6.25;2.52;;;;;;;10.48;40.94;96020.58;1749075;81;21012;-69
2022/04/12 09:49:05;;;;;;;3.12;2.00;;;;;;;10.18;39.21;96031.44;1713365;84;21015;-69
2022/04/12 09:51:32;;;;;;;5.10;2.95;;;;;;;9.94;40.95;96029.89;1749060;82;21075;-70
2022/04/12 09:54:00;;;;;;;4.08;2.37;;;;;;;9.99;41.49;96028.98;1713354;84;21034;-70
2022/04/12 09:56:29;;;;;;;4.28;2.70;;;;;;;10.04;40.89;96026.73;1749054;82;21015;-69
2022/04/12 09:59:02;;;;;;;2.87;2.65;;;;;;;9.90;40.43;96029.52;1712640;83;21030;-69
2022/04/12 10:01:31;;;;;;;2.80;2.50;;;;;;;9.82;39.93;96030.00;1749061;82;21015;-69
2022/04/12 10:03:59;;;;;;;5.67;3.50;;;;;;;9.85;41.18;96037.00;1712916;84;21497;-69
2022/04/12 10:06:28;;;;;;;3.92;2.77;;;;;;;10.08;39.91;96034.16;1748966;81;21051;-69
2022/04/12 10:09:00;;;;;;;3.75;2.17;;;;;;;10.43;39.01;96026.36;1713292;83;21019;-69
2022/04/12 10:11:27;;;;;;;4.40;2.62;;;;;;;10.85;38.83;96030.71;1749046;81;20980;-69
2022/04/12 10:13:54;;;;;;;2.45;2.10;;;;;;;11.10;38.86;96027.30;1713624;84;20983;-69
2022/04/12 10:16:22;;;;;;;4.42;2.52;;;;;;;11.18;36.56;96021.45;1749250;82;21015;-70
2022/04/12 10:18:50;;;;;;;3.33;2.47;;;;;;;11.06;37.29;96026.45;1713297;83;20967;-70
2022/04/12 10:21:17;;;;;;;3.85;2.33;;;;;;;10.76;36.58;96019.39;1748941;82;21521;-70
2022/04/12 10:23:49;;;;;;;2.80;2.33;;;;;;;10.46;38.02;96021.05;1713443;84;20979;-70
2022/04/12 10:26:19;;;;;;;3.27;2.30;;;;;;;10.13;38.35;96029.29;1713164;84;21015;-70
2022/04/12 10:29:00;;;;;;;2.20;2.00;;;;;;;9.93;37.57;96023.34;1749187;82;21476;-70
2022/04/12 10:31:31;;;;;;;2.62;2.22;;;;;;;9.88;38.61;96019.88;1713341;83;20995;-70
2022/04/12 10:34:09;;;;;;;4.10;2.52;;;;;;;10.40;38.67;96003.08;1749170;82;21060;-70
2022/04/12 10:37:08;;;;;;;2.00;1.80;;;;;;;10.75;37.22;95996.50;1713283;83;21520;-70
2022/04/12 10:39:39;;;;;;;3.33;1.67;;;;;;;11.17;40.77;95998.59;1749146;82;20983;-70
2022/04/12 10:42:11;;;;;;;3.35;2.10;;;;;;;11.52;37.71;95994.10;1713193;84;21513;-70
2022/04/12 10:44:47;;;;;;;7.50;3.37;;;;;;;11.80;36.87;95995.84;1749203;82;20995;-69
2022/04/12 10:47:38;;;;;;;3.15;2.77;;;;;;;11.65;36.41;95995.64;1713054;84;21011;-69
2022/04/12 10:50:08;;;;;;;6.10;2.58;;;;;;;11.30;36.27;95997.97;1691664;84;21042;-69
2022/04/12 10:52:48;;;;;;;3.45;2.92;;;;;;;11.13;37.27;96000.39;1749228;81;21009;-69
2022/04/12 10:55:18;;;;;;;4.97;2.08;;;;;;;11.04;35.99;96003.19;1713350;84;21027;-69
2022/04/12 10:57:46;;;;;;;3.33;3.00;;;;;;;10.83;36.67;95998.63;1749174;81;21434;-69
2022/04/12 11:00:18;;;;;;;5.72;2.98;;;;;;;10.65;37.25;95999.28;1713186;83;21087;-70
2022/04/12 11:02:55;;;;;;;4.92;3.08;;;;;;;10.59;37.75;96002.43;1749285;82;21080;-70
2022/04/12 11:05:42;;;;;;;4.08;2.70;;;;;;;10.53;38.30;96001.62;1713140;84;21015;-70
2022/04/12 11:08:20;;;;;;;4.10;2.65;;;;;;;10.65;38.31;95998.83;1713147;84;21082;-70
2022/04/12 11:10:57;;;;;;;3.27;2.27;;;;;;;11.17;39.00;95994.18;1748933;82;22303;-70
2022/04/12 11:13:31;;;;;;;3.95;2.80;;;;;;;11.73;39.20;95986.72;1713353;84;21083;-68
2022/04/12 11:16:08;;;;;;;5.50;2.50;;;;;;;12.18;36.72;95982.88;1713191;84;21106;-67
2022/04/12 11:18:58;;;;;;;3.52;2.87;;;;;;;12.38;34.41;95976.75;1749344;82;21111;-67
2022/04/12 11:21:29;;;;;;;3.12;2.30;;;;;;;12.08;35.98;95986.13;1713074;83;20995;-67
2022/04/12 11:24:02;;;;;;;7.22;2.75;;;;;;;11.96;34.99;95989.86;1706974;84;21030;-67
2022/04/12 11:26:45;;;;;;;5.53;3.70;;;;;;;12.08;36.12;95987.00;1749243;81;21016;-67
2022/04/12 11:29:19;;;;;;;4.25;2.87;;;;;;;12.07;35.79;95996.27;1712386;83;21129;-67
2022/04/12 11:31:50;;;;;;;;;;;;;;;12.34;36.86;95982.98;1777590;81;21504;-67
2022/04/12 11:34:18;;;;;;;3.02;2.42;;;;;;;12.54;37.98;95986.57;1774664;81;20123;-67
2022/04/12 11:36:58;;;;;;;3.65;2.50;;;;;;;13.22;35.84;95971.43;1774444;80;21003;-67
2022/04/12 11:39:28;;;;;;;4.35;2.75;;;;;;;13.62;34.34;95974.04;1774654;80;21607;-67